KBKT

Allen C Perkinson Blackstone AAF Airport

Blackstone, Virginia, USA
METAR KBKT 151855Z AUTO 22011G19KT 10SM BKN090 17/05 A2975 RMK AO1 T01700051
Observed Flight Rules
Feb-15 @ 18:55 UTC (14 minutes ago) Visual Flight Rules
Wind Visibility Clouds
220° at 11 knots
 Gusting to 19 knots
10 miles
  • Broken at 9,000' AGL
Temperatures Readings
Current 17°C / 63°F
Dewpoint 5°C / 41°F
Humidity 45%
Altimeter 29.75" Hg
Pressure 1007.42 hPa
Elevation 134
METAR KBKT 151855Z AUTO 22011G19KT 10SM BKN090 17/05 A2975 RMK AO1 T01700051
Observed Flight Rules
Feb-15 @ 18:55 UTC
(14 minutes ago)
VFR
Wind Visibility
220° at 11 knots
 Gusting to 19 knots
10 miles
Clouds
  • Broken at 9,000' AGL
Temperature Dewpoint
17°C / 63°F 5°C / 41°F
Humidity Altimeter Pressure
45% 29.75" Hg 1007.42 hPa